sensor_id;sensor_type;location;lat;lon;timestamp;temperature;humidity
46336;DHT22;31365;48.858;8.530;2022-07-04T00:00:34;21.70;96.50
46336;DHT22;31365;48.858;8.530;2022-07-04T00:03:02;21.70;96.40
46336;DHT22;31365;48.858;8.530;2022-07-04T00:05:32;21.70;96.60
46336;DHT22;31365;48.858;8.530;2022-07-04T00:08:01;21.70;96.70
46336;DHT22;31365;48.858;8.530;2022-07-04T00:10:31;21.70;96.70
46336;DHT22;31365;48.858;8.530;2022-07-04T00:12:59;21.70;96.70
46336;DHT22;31365;48.858;8.530;2022-07-04T00:15:28;21.80;96.60
46336;DHT22;31365;48.858;8.530;2022-07-04T00:17:58;21.60;96.90
46336;DHT22;31365;48.858;8.530;2022-07-04T00:20:26;21.50;97.10
46336;DHT22;31365;48.858;8.530;2022-07-04T00:22:55;21.50;97.50
46336;DHT22;31365;48.858;8.530;2022-07-04T00:25:24;21.40;97.40
46336;DHT22;31365;48.858;8.530;2022-07-04T00:27:52;21.40;97.30
46336;DHT22;31365;48.858;8.530;2022-07-04T00:30:21;21.30;97.60
46336;DHT22;31365;48.858;8.530;2022-07-04T00:32:49;21.30;97.90
46336;DHT22;31365;48.858;8.530;2022-07-04T00:35:19;21.20;97.70
46336;DHT22;31365;48.858;8.530;2022-07-04T00:37:47;21.20;97.90
46336;DHT22;31365;48.858;8.530;2022-07-04T00:40:16;21.30;97.80
46336;DHT22;31365;48.858;8.530;2022-07-04T00:42:44;21.20;97.60
46336;DHT22;31365;48.858;8.530;2022-07-04T00:45:12;21.10;98.00
46336;DHT22;31365;48.858;8.530;2022-07-04T00:47:41;21.10;98.40
46336;DHT22;31365;48.858;8.530;2022-07-04T00:50:10;21.10;98.10
46336;DHT22;31365;48.858;8.530;2022-07-04T00:52:39;21.00;98.60
46336;DHT22;31365;48.858;8.530;2022-07-04T00:55:09;21.00;98.50
46336;DHT22;31365;48.858;8.530;2022-07-04T00:57:38;21.00;98.40
46336;DHT22;31365;48.858;8.530;2022-07-04T01:00:07;21.00;98.30
46336;DHT22;31365;48.858;8.530;2022-07-04T01:02:36;21.00;98.20
46336;DHT22;31365;48.858;8.530;2022-07-04T01:05:05;21.00;98.20
46336;DHT22;31365;48.858;8.530;2022-07-04T01:07:35;21.00;98.10
46336;DHT22;31365;48.858;8.530;2022-07-04T01:10:06;21.00;98.20
46336;DHT22;31365;48.858;8.530;2022-07-04T01:12:36;21.00;98.60
46336;DHT22;31365;48.858;8.530;2022-07-04T01:15:06;20.90;98.70
46336;DHT22;31365;48.858;8.530;2022-07-04T01:17:35;20.80;98.80
46336;DHT22;31365;48.858;8.530;2022-07-04T01:20:05;20.80;98.80
46336;DHT22;31365;48.858;8.530;2022-07-04T01:22:39;20.70;99.30
46336;DHT22;31365;48.858;8.530;2022-07-04T01:25:08;20.60;99.30
46336;DHT22;31365;48.858;8.530;2022-07-04T01:27:36;20.60;99.40
46336;DHT22;31365;48.858;8.530;2022-07-04T01:30:06;20.60;99.30
46336;DHT22;31365;48.858;8.530;2022-07-04T01:32:35;20.40;99.60
46336;DHT22;31365;48.858;8.530;2022-07-04T01:35:05;20.40;99.90
46336;DHT22;31365;48.858;8.530;2022-07-04T01:37:34;20.30;99.90
46336;DHT22;31365;48.858;8.530;2022-07-04T01:40:04;20.20;99.90
46336;DHT22;31365;48.858;8.530;2022-07-04T01:42:33;20.20;99.90
46336;DHT22;31365;48.858;8.530;2022-07-04T01:45:02;20.10;99.90
46336;DHT22;31365;48.858;8.530;2022-07-04T01:47:30;20.10;99.90
46336;DHT22;31365;48.858;8.530;2022-07-04T01:49:59;20.00;99.90
46336;DHT22;31365;48.858;8.530;2022-07-04T01:52:28;20.10;99.90
46336;DHT22;31365;48.858;8.530;2022-07-04T01:54:57;19.90;99.90
46336;DHT22;31365;48.858;8.530;2022-07-04T01:57:26;19.90;99.90
46336;DHT22;31365;48.858;8.530;2022-07-04T01:59:54;19.80;99.90
46336;DHT22;31365;48.858;8.530;2022-07-04T02:02:40;19.80;99.90
46336;DHT22;31365;48.858;8.530;2022-07-04T02:05:08;19.80;99.90
46336;DHT22;31365;48.858;8.530;2022-07-04T02:07:37;19.90;99.90
46336;DHT22;31365;48.858;8.530;2022-07-04T02:10:08;19.80;99.90
46336;DHT22;31365;48.858;8.530;2022-07-04T02:12:37;19.80;99.90
46336;DHT22;31365;48.858;8.530;2022-07-04T02:15:23;19.70;99.90
46336;DHT22;31365;48.858;8.530;2022-07-04T02:17:52;19.60;99.90
46336;DHT22;31365;48.858;8.530;2022-07-04T02:20:20;19.60;99.90
46336;DHT22;31365;48.858;8.530;2022-07-04T02:22:49;19.60;99.90
46336;DHT22;31365;48.858;8.530;2022-07-04T02:25:19;19.60;99.90
46336;DHT22;31365;48.858;8.530;2022-07-04T02:27:53;19.60;99.90
46336;DHT22;31365;48.858;8.530;2022-07-04T02:30:23;19.60;99.90
46336;DHT22;31365;48.858;8.530;2022-07-04T02:32:51;19.60;99.90
46336;DHT22;31365;48.858;8.530;2022-07-04T02:35:20;19.50;99.90
46336;DHT22;31365;48.858;8.530;2022-07-04T02:37:48;19.50;99.90
46336;DHT22;31365;48.858;8.530;2022-07-04T02:40:16;19.40;99.90
46336;DHT22;31365;48.858;8.530;2022-07-04T02:42:46;19.40;99.90
46336;DHT22;31365;48.858;8.530;2022-07-04T02:45:14;19.40;99.90
46336;DHT22;31365;48.858;8.530;2022-07-04T02:47:43;19.40;99.90
46336;DHT22;31365;48.858;8.530;2022-07-04T02:50:11;19.40;99.90
46336;DHT22;31365;48.858;8.530;2022-07-04T02:52:40;19.40;99.90
46336;DHT22;31365;48.858;8.530;2022-07-04T02:55:08;19.30;99.90
46336;DHT22;31365;48.858;8.530;2022-07-04T02:57:36;19.30;99.90
46336;DHT22;31365;48.858;8.530;2022-07-04T03:00:08;19.20;99.90
46336;DHT22;31365;48.858;8.530;2022-07-04T03:02:37;19.20;99.90
46336;DHT22;31365;48.858;8.530;2022-07-04T03:05:06;19.20;99.90
46336;DHT22;31365;48.858;8.530;2022-07-04T03:07:35;19.10;99.90
46336;DHT22;31365;48.858;8.530;2022-07-04T03:10:04;19.00;99.90
46336;DHT22;31365;48.858;8.530;2022-07-04T03:12:33;19.00;99.90
46336;DHT22;31365;48.858;8.530;2022-07-04T03:15:02;18.90;99.90
46336;DHT22;31365;48.858;8.530;2022-07-04T03:17:32;18.80;99.90
46336;DHT22;31365;48.858;8.530;2022-07-04T03:20:01;18.80;99.90
46336;DHT22;31365;48.858;8.530;2022-07-04T03:22:29;18.80;99.90
46336;DHT22;31365;48.858;8.530;2022-07-04T03:24:58;18.60;99.90
46336;DHT22;31365;48.858;8.530;2022-07-04T03:27:26;18.60;99.90
46336;DHT22;31365;48.858;8.530;2022-07-04T03:29:55;18.60;99.90
46336;DHT22;31365;48.858;8.530;2022-07-04T03:32:23;18.60;99.90
46336;DHT22;31365;48.858;8.530;2022-07-04T03:34:53;18.60;99.90
46336;DHT22;31365;48.858;8.530;2022-07-04T03:37:21;18.60;99.90
46336;DHT22;31365;48.858;8.530;2022-07-04T03:39:49;18.50;99.90
46336;DHT22;31365;48.858;8.530;2022-07-04T03:42:18;18.50;99.90
46336;DHT22;31365;48.858;8.530;2022-07-04T03:44:46;18.50;99.90
46336;DHT22;31365;48.858;8.530;2022-07-04T03:47:14;18.60;99.90
46336;DHT22;31365;48.858;8.530;2022-07-04T03:49:43;18.60;99.90
46336;DHT22;31365;48.858;8.530;2022-07-04T03:52:12;18.60;99.90
46336;DHT22;31365;48.858;8.530;2022-07-04T03:54:40;18.60;99.90
46336;DHT22;31365;48.858;8.530;2022-07-04T03:57:09;18.50;99.90
46336;DHT22;31365;48.858;8.530;2022-07-04T03:59:37;18.60;99.90
46336;DHT22;31365;48.858;8.530;2022-07-04T04:02:05;18.60;99.90
46336;DHT22;31365;48.858;8.530;2022-07-04T04:04:34;18.60;99.90
46336;DHT22;31365;48.858;8.530;2022-07-04T04:07:22;18.60;99.90
46336;DHT22;31365;48.858;8.530;2022-07-04T04:09:50;18.60;99.90
46336;DHT22;31365;48.858;8.530;2022-07-04T04:12:18;18.50;99.90
46336;DHT22;31365;48.858;8.530;2022-07-04T04:14:47;18.60;99.90
46336;DHT22;31365;48.858;8.530;2022-07-04T04:17:15;18.60;99.90
46336;DHT22;31365;48.858;8.530;2022-07-04T04:19:44;18.70;99.90
46336;DHT22;31365;48.858;8.530;2022-07-04T04:22:13;18.80;99.90
46336;DHT22;31365;48.858;8.530;2022-07-04T04:24:43;18.80;99.90
46336;DHT22;31365;48.858;8.530;2022-07-04T04:27:12;18.80;99.90
46336;DHT22;31365;48.858;8.530;2022-07-04T04:29:41;18.80;99.90
46336;DHT22;31365;48.858;8.530;2022-07-04T04:32:09;18.80;99.90
46336;DHT22;31365;48.858;8.530;2022-07-04T04:34:38;18.80;99.90
46336;DHT22;31365;48.858;8.530;2022-07-04T04:37:07;18.70;99.90
46336;DHT22;31365;48.858;8.530;2022-07-04T04:39:35;18.80;99.90
46336;DHT22;31365;48.858;8.530;2022-07-04T04:42:05;18.80;99.90
46336;DHT22;31365;48.858;8.530;2022-07-04T04:44:33;18.90;99.90
46336;DHT22;31365;48.858;8.530;2022-07-04T04:47:02;18.90;99.90
46336;DHT22;31365;48.858;8.530;2022-07-04T04:49:30;18.90;99.90
46336;DHT22;31365;48.858;8.530;2022-07-04T04:51:59;19.00;99.90
46336;DHT22;31365;48.858;8.530;2022-07-04T04:54:27;19.00;99.90
46336;DHT22;31365;48.858;8.530;2022-07-04T04:56:55;19.10;99.90
46336;DHT22;31365;48.858;8.530;2022-07-04T04:59:26;19.10;99.90
46336;DHT22;31365;48.858;8.530;2022-07-04T05:01:54;19.20;99.90
46336;DHT22;31365;48.858;8.530;2022-07-04T05:04:23;19.10;99.90
46336;DHT22;31365;48.858;8.530;2022-07-04T05:06:52;19.20;99.90
46336;DHT22;31365;48.858;8.530;2022-07-04T05:09:20;19.20;99.90
46336;DHT22;31365;48.858;8.530;2022-07-04T05:11:48;19.20;99.90
46336;DHT22;31365;48.858;8.530;2022-07-04T05:14:17;19.30;99.90
46336;DHT22;31365;48.858;8.530;2022-07-04T05:16:47;19.40;99.90
46336;DHT22;31365;48.858;8.530;2022-07-04T05:19:16;19.50;99.90
46336;DHT22;31365;48.858;8.530;2022-07-04T05:21:45;19.60;99.90
46336;DHT22;31365;48.858;8.530;2022-07-04T05:24:13;19.60;99.90
46336;DHT22;31365;48.858;8.530;2022-07-04T05:26:43;19.70;99.90
46336;DHT22;31365;48.858;8.530;2022-07-04T05:29:11;19.70;99.90
46336;DHT22;31365;48.858;8.530;2022-07-04T05:31:40;19.80;99.90
46336;DHT22;31365;48.858;8.530;2022-07-04T05:34:09;19.90;99.90
46336;DHT22;31365;48.858;8.530;2022-07-04T05:36:38;19.90;99.90
46336;DHT22;31365;48.858;8.530;2022-07-04T05:39:06;19.80;99.90
46336;DHT22;31365;48.858;8.530;2022-07-04T05:41:34;19.90;99.90
46336;DHT22;31365;48.858;8.530;2022-07-04T05:44:03;19.80;99.90
46336;DHT22;31365;48.858;8.530;2022-07-04T05:46:31;19.90;99.90
46336;DHT22;31365;48.858;8.530;2022-07-04T05:49:00;19.90;99.90
46336;DHT22;31365;48.858;8.530;2022-07-04T05:51:30;19.90;99.90
46336;DHT22;31365;48.858;8.530;2022-07-04T05:53:59;20.00;99.90
46336;DHT22;31365;48.858;8.530;2022-07-04T05:56:27;20.10;99.90
46336;DHT22;31365;48.858;8.530;2022-07-04T05:58:57;20.10;99.90
46336;DHT22;31365;48.858;8.530;2022-07-04T06:01:25;20.20;99.90
46336;DHT22;31365;48.858;8.530;2022-07-04T06:03:54;20.20;99.90
46336;DHT22;31365;48.858;8.530;2022-07-04T06:06:22;20.30;99.90
46336;DHT22;31365;48.858;8.530;2022-07-04T06:08:52;20.40;99.90
46336;DHT22;31365;48.858;8.530;2022-07-04T06:11:21;20.30;99.90
46336;DHT22;31365;48.858;8.530;2022-07-04T06:13:49;20.20;99.90
46336;DHT22;31365;48.858;8.530;2022-07-04T06:16:18;20.20;99.90
46336;DHT22;31365;48.858;8.530;2022-07-04T06:18:47;20.20;99.90
46336;DHT22;31365;48.858;8.530;2022-07-04T06:21:15;20.30;99.90
46336;DHT22;31365;48.858;8.530;2022-07-04T06:23:44;20.40;99.90
46336;DHT22;31365;48.858;8.530;2022-07-04T06:26:14;20.40;99.90
46336;DHT22;31365;48.858;8.530;2022-07-04T06:28:43;20.40;99.90
46336;DHT22;31365;48.858;8.530;2022-07-04T06:31:13;20.60;99.90
46336;DHT22;31365;48.858;8.530;2022-07-04T06:33:43;20.70;99.90
46336;DHT22;31365;48.858;8.530;2022-07-04T06:36:28;20.80;99.90
46336;DHT22;31365;48.858;8.530;2022-07-04T06:38:57;20.80;99.90
46336;DHT22;31365;48.858;8.530;2022-07-04T06:41:27;20.90;99.90
46336;DHT22;31365;48.858;8.530;2022-07-04T06:43:55;20.90;99.90
46336;DHT22;31365;48.858;8.530;2022-07-04T06:46:24;20.80;99.90
46336;DHT22;31365;48.858;8.530;2022-07-04T06:48:52;20.80;99.90
46336;DHT22;31365;48.858;8.530;2022-07-04T06:51:21;20.90;99.90
46336;DHT22;31365;48.858;8.530;2022-07-04T06:53:51;20.90;99.90
46336;DHT22;31365;48.858;8.530;2022-07-04T06:56:20;21.00;99.90
46336;DHT22;31365;48.858;8.530;2022-07-04T06:58:50;20.90;99.90
46336;DHT22;31365;48.858;8.530;2022-07-04T07:01:18;21.10;99.90
46336;DHT22;31365;48.858;8.530;2022-07-04T07:03:47;21.00;99.90
46336;DHT22;31365;48.858;8.530;2022-07-04T07:06:16;21.10;99.90
46336;DHT22;31365;48.858;8.530;2022-07-04T07:08:45;21.10;99.90
46336;DHT22;31365;48.858;8.530;2022-07-04T07:11:13;21.10;99.90
46336;DHT22;31365;48.858;8.530;2022-07-04T07:13:42;21.20;99.90
46336;DHT22;31365;48.858;8.530;2022-07-04T07:16:14;21.30;99.90
46336;DHT22;31365;48.858;8.530;2022-07-04T07:18:43;21.30;99.90
46336;DHT22;31365;48.858;8.530;2022-07-04T07:21:13;21.40;99.90
46336;DHT22;31365;48.858;8.530;2022-07-04T07:23:41;21.40;99.90
46336;DHT22;31365;48.858;8.530;2022-07-04T07:26:10;21.30;99.90
46336;DHT22;31365;48.858;8.530;2022-07-04T07:28:39;21.30;99.90
46336;DHT22;31365;48.858;8.530;2022-07-04T07:31:08;21.20;99.90
46336;DHT22;31365;48.858;8.530;2022-07-04T07:33:38;21.10;99.90
46336;DHT22;31365;48.858;8.530;2022-07-04T07:36:07;21.10;99.90
46336;DHT22;31365;48.858;8.530;2022-07-04T07:38:35;21.20;99.90
46336;DHT22;31365;48.858;8.530;2022-07-04T07:41:07;21.40;99.90
46336;DHT22;31365;48.858;8.530;2022-07-04T07:43:37;21.60;99.90
46336;DHT22;31365;48.858;8.530;2022-07-04T07:46:07;21.70;99.90
46336;DHT22;31365;48.858;8.530;2022-07-04T07:48:36;21.70;99.90
46336;DHT22;31365;48.858;8.530;2022-07-04T07:51:06;21.60;99.90
46336;DHT22;31365;48.858;8.530;2022-07-04T07:53:35;21.60;99.90
46336;DHT22;31365;48.858;8.530;2022-07-04T07:56:23;21.50;99.90
46336;DHT22;31365;48.858;8.530;2022-07-04T07:58:52;21.60;99.90
46336;DHT22;31365;48.858;8.530;2022-07-04T08:01:20;21.50;99.90
46336;DHT22;31365;48.858;8.530;2022-07-04T08:03:49;21.60;99.90
46336;DHT22;31365;48.858;8.530;2022-07-04T08:06:40;21.70;99.90
46336;DHT22;31365;48.858;8.530;2022-07-04T08:09:29;21.80;99.90
46336;DHT22;31365;48.858;8.530;2022-07-04T08:11:59;21.80;99.90
46336;DHT22;31365;48.858;8.530;2022-07-04T08:14:29;21.90;99.90
46336;DHT22;31365;48.858;8.530;2022-07-04T08:16:59;21.90;99.90
46336;DHT22;31365;48.858;8.530;2022-07-04T08:19:28;22.00;99.90
46336;DHT22;31365;48.858;8.530;2022-07-04T08:21:57;22.00;99.90
46336;DHT22;31365;48.858;8.530;2022-07-04T08:24:43;22.10;99.90
46336;DHT22;31365;48.858;8.530;2022-07-04T08:27:13;22.00;99.90
46336;DHT22;31365;48.858;8.530;2022-07-04T08:29:41;21.80;99.90
46336;DHT22;31365;48.858;8.530;2022-07-04T08:32:10;21.80;99.90
46336;DHT22;31365;48.858;8.530;2022-07-04T08:34:38;21.60;99.90
46336;DHT22;31365;48.858;8.530;2022-07-04T08:37:08;21.70;99.90
46336;DHT22;31365;48.858;8.530;2022-07-04T08:39:37;21.70;99.90
46336;DHT22;31365;48.858;8.530;2022-07-04T08:42:09;21.90;99.90
46336;DHT22;31365;48.858;8.530;2022-07-04T08:44:47;22.00;99.90
46336;DHT22;31365;48.858;8.530;2022-07-04T08:47:18;22.10;99.90
46336;DHT22;31365;48.858;8.530;2022-07-04T08:49:54;22.10;99.90
46336;DHT22;31365;48.858;8.530;2022-07-04T08:52:33;22.10;99.90
46336;DHT22;31365;48.858;8.530;2022-07-04T08:55:05;22.20;99.90
46336;DHT22;31365;48.858;8.530;2022-07-04T08:57:53;22.30;99.90
46336;DHT22;31365;48.858;8.530;2022-07-04T09:00:40;22.40;99.90
46336;DHT22;31365;48.858;8.530;2022-07-04T09:03:09;22.50;99.90
46336;DHT22;31365;48.858;8.530;2022-07-04T09:05:38;22.50;99.90
46336;DHT22;31365;48.858;8.530;2022-07-04T09:08:08;22.70;99.90
46336;DHT22;31365;48.858;8.530;2022-07-04T09:10:37;22.80;99.90
46336;DHT22;31365;48.858;8.530;2022-07-04T09:13:07;22.80;99.90
46336;DHT22;31365;48.858;8.530;2022-07-04T09:15:39;22.70;99.90
46336;DHT22;31365;48.858;8.530;2022-07-04T09:18:20;22.70;99.90
46336;DHT22;31365;48.858;8.530;2022-07-04T09:20:50;22.70;99.90
46336;DHT22;31365;48.858;8.530;2022-07-04T09:23:22;22.80;99.70
46336;DHT22;31365;48.858;8.530;2022-07-04T09:26:08;22.80;99.40
46336;DHT22;31365;48.858;8.530;2022-07-04T09:28:39;22.90;99.40
46336;DHT22;31365;48.858;8.530;2022-07-04T09:31:19;22.80;99.40
46336;DHT22;31365;48.858;8.530;2022-07-04T09:33:51;22.90;97.80
46336;DHT22;31365;48.858;8.530;2022-07-04T09:36:22;23.00;96.90
46336;DHT22;31365;48.858;8.530;2022-07-04T09:39:12;23.10;97.80
46336;DHT22;31365;48.858;8.530;2022-07-04T09:41:54;23.20;98.30
46336;DHT22;31365;48.858;8.530;2022-07-04T09:44:26;23.20;98.00
46336;DHT22;31365;48.858;8.530;2022-07-04T09:46:55;23.40;98.60
46336;DHT22;31365;48.858;8.530;2022-07-04T09:49:24;23.60;98.30
46336;DHT22;31365;48.858;8.530;2022-07-04T09:51:53;23.70;97.80
46336;DHT22;31365;48.858;8.530;2022-07-04T09:54:25;23.60;97.70
46336;DHT22;31365;48.858;8.530;2022-07-04T09:57:00;23.70;97.90
46336;DHT22;31365;48.858;8.530;2022-07-04T09:59:30;23.80;97.90
46336;DHT22;31365;48.858;8.530;2022-07-04T10:02:08;23.90;97.10
46336;DHT22;31365;48.858;8.530;2022-07-04T10:04:45;23.90;96.80
46336;DHT22;31365;48.858;8.530;2022-07-04T10:07:32;24.10;96.80
46336;DHT22;31365;48.858;8.530;2022-07-04T10:10:30;24.10;96.50
46336;DHT22;31365;48.858;8.530;2022-07-04T10:13:02;24.20;96.70
46336;DHT22;31365;48.858;8.530;2022-07-04T10:15:33;24.50;96.90
46336;DHT22;31365;48.858;8.530;2022-07-04T10:18:04;24.60;96.50
46336;DHT22;31365;48.858;8.530;2022-07-04T10:20:33;24.70;96.80
46336;DHT22;31365;48.858;8.530;2022-07-04T10:23:03;25.00;97.10
46336;DHT22;31365;48.858;8.530;2022-07-04T10:25:33;25.40;96.70
46336;DHT22;31365;48.858;8.530;2022-07-04T10:28:02;25.60;95.80
46336;DHT22;31365;48.858;8.530;2022-07-04T10:30:32;25.60;95.30
46336;DHT22;31365;48.858;8.530;2022-07-04T10:33:07;25.60;96.10
46336;DHT22;31365;48.858;8.530;2022-07-04T10:35:52;25.50;96.10
46336;DHT22;31365;48.858;8.530;2022-07-04T10:38:22;25.50;96.10
46336;DHT22;31365;48.858;8.530;2022-07-04T10:40:54;25.40;96.20
46336;DHT22;31365;48.858;8.530;2022-07-04T10:43:52;25.60;95.70
46336;DHT22;31365;48.858;8.530;2022-07-04T10:46:47;25.60;94.80
46336;DHT22;31365;48.858;8.530;2022-07-04T10:49:21;25.40;95.00
46336;DHT22;31365;48.858;8.530;2022-07-04T10:52:01;25.20;95.20
46336;DHT22;31365;48.858;8.530;2022-07-04T10:54:44;25.20;96.00
46336;DHT22;31365;48.858;8.530;2022-07-04T10:57:16;25.40;96.00
46336;DHT22;31365;48.858;8.530;2022-07-04T11:00:02;25.60;95.40
46336;DHT22;31365;48.858;8.530;2022-07-04T11:02:35;25.90;95.10
46336;DHT22;31365;48.858;8.530;2022-07-04T11:05:07;26.30;94.60
46336;DHT22;31365;48.858;8.530;2022-07-04T11:07:55;26.40;94.00
46336;DHT22;31365;48.858;8.530;2022-07-04T11:10:27;26.50;93.50
46336;DHT22;31365;48.858;8.530;2022-07-04T11:13:14;26.50;93.60
46336;DHT22;31365;48.858;8.530;2022-07-04T11:16:04;26.30;93.40
46336;DHT22;31365;48.858;8.530;2022-07-04T11:18:44;26.10;93.40
46336;DHT22;31365;48.858;8.530;2022-07-04T11:21:20;26.10;93.90
46336;DHT22;31365;48.858;8.530;2022-07-04T11:23:53;26.50;93.40
46336;DHT22;31365;48.858;8.530;2022-07-04T11:26:23;26.70;93.10
46336;DHT22;31365;48.858;8.530;2022-07-04T11:28:54;27.10;92.90
46336;DHT22;31365;48.858;8.530;2022-07-04T11:31:35;27.80;92.70
46336;DHT22;31365;48.858;8.530;2022-07-04T11:34:04;28.40;91.90
46336;DHT22;31365;48.858;8.530;2022-07-04T11:36:34;29.30;91.40
46336;DHT22;31365;48.858;8.530;2022-07-04T11:39:04;29.70;90.00
46336;DHT22;31365;48.858;8.530;2022-07-04T11:41:36;29.80;90.20
46336;DHT22;31365;48.858;8.530;2022-07-04T11:44:26;30.20;89.80
46336;DHT22;31365;48.858;8.530;2022-07-04T11:47:14;30.50;88.20
46336;DHT22;31365;48.858;8.530;2022-07-04T11:49:46;31.20;85.20
46336;DHT22;31365;48.858;8.530;2022-07-04T11:52:18;31.30;83.20
46336;DHT22;31365;48.858;8.530;2022-07-04T11:55:09;31.90;82.90
46336;DHT22;31365;48.858;8.530;2022-07-04T11:57:41;32.70;81.30
46336;DHT22;31365;48.858;8.530;2022-07-04T12:00:14;32.80;78.60
46336;DHT22;31365;48.858;8.530;2022-07-04T12:02:45;32.20;79.80
46336;DHT22;31365;48.858;8.530;2022-07-04T12:05:17;31.90;80.20
46336;DHT22;31365;48.858;8.530;2022-07-04T12:07:48;31.50;79.60
46336;DHT22;31365;48.858;8.530;2022-07-04T12:10:36;31.20;80.60
46336;DHT22;31365;48.858;8.530;2022-07-04T12:13:07;31.20;81.00
46336;DHT22;31365;48.858;8.530;2022-07-04T12:15:45;31.70;80.50
46336;DHT22;31365;48.858;8.530;2022-07-04T12:18:17;32.70;79.90
46336;DHT22;31365;48.858;8.530;2022-07-04T12:20:48;33.00;78.00
46336;DHT22;31365;48.858;8.530;2022-07-04T12:23:22;33.10;77.10
46336;DHT22;31365;48.858;8.530;2022-07-04T12:25:53;33.00;76.50
46336;DHT22;31365;48.858;8.530;2022-07-04T12:28:22;32.70;75.70
46336;DHT22;31365;48.858;8.530;2022-07-04T12:30:55;32.60;75.70
46336;DHT22;31365;48.858;8.530;2022-07-04T12:33:26;33.10;76.30
46336;DHT22;31365;48.858;8.530;2022-07-04T12:35:58;34.00;74.70
46336;DHT22;31365;48.858;8.530;2022-07-04T12:38:34;35.00;72.80
46336;DHT22;31365;48.858;8.530;2022-07-04T12:41:05;35.60;70.10
46336;DHT22;31365;48.858;8.530;2022-07-04T12:43:46;36.10;69.00
46336;DHT22;31365;48.858;8.530;2022-07-04T12:46:29;36.40;69.70
46336;DHT22;31365;48.858;8.530;2022-07-04T12:49:05;36.80;66.60
46336;DHT22;31365;48.858;8.530;2022-07-04T12:51:34;37.10;65.80
46336;DHT22;31365;48.858;8.530;2022-07-04T12:54:09;37.30;64.70
46336;DHT22;31365;48.858;8.530;2022-07-04T12:56:39;37.40;65.50
46336;DHT22;31365;48.858;8.530;2022-07-04T12:59:12;37.30;62.60
46336;DHT22;31365;48.858;8.530;2022-07-04T13:01:43;36.70;64.90
46336;DHT22;31365;48.858;8.530;2022-07-04T13:04:13;37.10;64.70
46336;DHT22;31365;48.858;8.530;2022-07-04T13:06:43;37.40;64.00
46336;DHT22;31365;48.858;8.530;2022-07-04T13:09:11;37.90;63.70
46336;DHT22;31365;48.858;8.530;2022-07-04T13:11:39;38.30;62.80
46336;DHT22;31365;48.858;8.530;2022-07-04T13:14:26;38.70;60.00
46336;DHT22;31365;48.858;8.530;2022-07-04T13:16:55;38.80;59.50
46336;DHT22;31365;48.858;8.530;2022-07-04T13:19:24;38.60;58.80
46336;DHT22;31365;48.858;8.530;2022-07-04T13:21:53;38.50;59.60
46336;DHT22;31365;48.858;8.530;2022-07-04T13:24:22;38.40;59.20
46336;DHT22;31365;48.858;8.530;2022-07-04T13:26:50;38.70;58.90
46336;DHT22;31365;48.858;8.530;2022-07-04T13:29:19;39.00;58.30
46336;DHT22;31365;48.858;8.530;2022-07-04T13:31:49;39.20;57.50
46336;DHT22;31365;48.858;8.530;2022-07-04T13:34:19;39.40;58.20
46336;DHT22;31365;48.858;8.530;2022-07-04T13:36:47;39.00;57.00
46336;DHT22;31365;48.858;8.530;2022-07-04T13:39:18;38.40;58.00
46336;DHT22;31365;48.858;8.530;2022-07-04T13:42:06;38.00;57.60
46336;DHT22;31365;48.858;8.530;2022-07-04T13:44:35;38.10;58.10
46336;DHT22;31365;48.858;8.530;2022-07-04T13:47:04;38.10;58.30
46336;DHT22;31365;48.858;8.530;2022-07-04T13:49:34;38.00;58.80
46336;DHT22;31365;48.858;8.530;2022-07-04T13:52:03;38.20;57.50
46336;DHT22;31365;48.858;8.530;2022-07-04T13:54:31;38.20;56.90
46336;DHT22;31365;48.858;8.530;2022-07-04T13:57:00;38.40;57.20
46336;DHT22;31365;48.858;8.530;2022-07-04T13:59:28;38.40;56.80
46336;DHT22;31365;48.858;8.530;2022-07-04T14:01:57;38.30;56.80
46336;DHT22;31365;48.858;8.530;2022-07-04T14:04:25;38.70;56.60
46336;DHT22;31365;48.858;8.530;2022-07-04T14:06:55;38.90;56.30
46336;DHT22;31365;48.858;8.530;2022-07-04T14:09:24;39.00;55.80
46336;DHT22;31365;48.858;8.530;2022-07-04T14:11:52;38.60;55.90
46336;DHT22;31365;48.858;8.530;2022-07-04T14:14:21;37.50;55.60
46336;DHT22;31365;48.858;8.530;2022-07-04T14:16:49;37.50;56.50
46336;DHT22;31365;48.858;8.530;2022-07-04T14:19:18;37.00;56.80
46336;DHT22;31365;48.858;8.530;2022-07-04T14:21:46;36.20;57.00
46336;DHT22;31365;48.858;8.530;2022-07-04T14:24:17;36.30;57.70
46336;DHT22;31365;48.858;8.530;2022-07-04T14:26:50;36.80;57.50
46336;DHT22;31365;48.858;8.530;2022-07-04T14:29:19;37.20;56.20
46336;DHT22;31365;48.858;8.530;2022-07-04T14:31:47;36.90;55.50
46336;DHT22;31365;48.858;8.530;2022-07-04T14:34:18;36.60;56.00
46336;DHT22;31365;48.858;8.530;2022-07-04T14:36:46;36.90;56.40
46336;DHT22;31365;48.858;8.530;2022-07-04T14:39:16;36.80;55.70
46336;DHT22;31365;48.858;8.530;2022-07-04T14:41:47;36.60;55.20
46336;DHT22;31365;48.858;8.530;2022-07-04T14:44:16;36.30;54.90
46336;DHT22;31365;48.858;8.530;2022-07-04T14:46:45;36.20;55.00
46336;DHT22;31365;48.858;8.530;2022-07-04T14:49:13;36.40;55.00
46336;DHT22;31365;48.858;8.530;2022-07-04T14:51:42;36.90;55.30
46336;DHT22;31365;48.858;8.530;2022-07-04T14:54:11;36.90;54.80
46336;DHT22;31365;48.858;8.530;2022-07-04T14:56:40;36.90;54.10
46336;DHT22;31365;48.858;8.530;2022-07-04T14:59:08;37.10;54.00
46336;DHT22;31365;48.858;8.530;2022-07-04T15:01:37;37.00;54.50
46336;DHT22;31365;48.858;8.530;2022-07-04T15:04:05;36.80;53.30
46336;DHT22;31365;48.858;8.530;2022-07-04T15:06:34;36.50;53.20
46336;DHT22;31365;48.858;8.530;2022-07-04T15:09:03;36.90;53.10
46336;DHT22;31365;48.858;8.530;2022-07-04T15:11:32;37.20;52.50
46336;DHT22;31365;48.858;8.530;2022-07-04T15:14:01;37.20;53.20
46336;DHT22;31365;48.858;8.530;2022-07-04T15:16:30;37.30;53.20
46336;DHT22;31365;48.858;8.530;2022-07-04T15:18:59;37.30;54.20
46336;DHT22;31365;48.858;8.530;2022-07-04T15:21:27;37.00;54.10
46336;DHT22;31365;48.858;8.530;2022-07-04T15:24:13;36.10;54.10
46336;DHT22;31365;48.858;8.530;2022-07-04T15:26:44;35.10;55.60
46336;DHT22;31365;48.858;8.530;2022-07-04T15:29:14;34.50;56.70
46336;DHT22;31365;48.858;8.530;2022-07-04T15:31:44;34.20;56.30
46336;DHT22;31365;48.858;8.530;2022-07-04T15:34:16;33.60;55.60
46336;DHT22;31365;48.858;8.530;2022-07-04T15:36:45;33.40;57.30
46336;DHT22;31365;48.858;8.530;2022-07-04T15:39:15;33.20;57.90
46336;DHT22;31365;48.858;8.530;2022-07-04T15:41:44;33.00;59.50
46336;DHT22;31365;48.858;8.530;2022-07-04T15:44:15;32.60;59.80
46336;DHT22;31365;48.858;8.530;2022-07-04T15:46:44;32.50;59.70
46336;DHT22;31365;48.858;8.530;2022-07-04T15:49:30;32.30;61.70
46336;DHT22;31365;48.858;8.530;2022-07-04T15:51:58;32.00;61.70
46336;DHT22;31365;48.858;8.530;2022-07-04T15:54:27;31.70;61.90